createdAt,value
2023-04-16T00:26:08.329Z,68
2023-04-16T00:55:28.671Z,69
2023-04-16T01:24:39.382Z,69
2023-04-16T01:54:02.416Z,69
2023-04-16T02:23:20.599Z,69
2023-04-16T02:52:42.484Z,68
2023-04-16T03:22:03.016Z,72
2023-04-16T03:51:25.071Z,72
2023-04-16T04:20:25.721Z,72
2023-04-16T04:49:28.812Z,74
2023-04-16T05:18:35.439Z,74
2023-04-16T05:47:39.936Z,76
2023-04-16T06:16:46.433Z,75
2023-04-16T06:45:50.026Z,74
2023-04-16T07:15:00.099Z,75
2023-04-16T07:44:21.216Z,76
2023-04-16T08:13:33.892Z,77
2023-04-16T08:42:18.836Z,77
2023-04-16T09:11:27.267Z,78
2023-04-16T09:40:48.401Z,78
2023-04-16T10:10:01.500Z,79
2023-04-16T10:39:22.164Z,77
2023-04-16T11:08:55.584Z,76
2023-04-16T11:37:34.106Z,74
2023-04-16T12:06:47.837Z,73
2023-04-16T12:36:10.332Z,71
2023-04-16T13:05:19.339Z,71
2023-04-16T13:34:30.336Z,71
2023-04-16T14:03:45.715Z,73
2023-04-16T14:32:54.062Z,73
2023-04-16T15:02:05.266Z,73
2023-04-16T15:31:18.406Z,72
2023-04-16T16:00:35.065Z,73
2023-04-16T16:29:51.944Z,74
2023-04-16T16:59:14.003Z,76
2023-04-16T17:28:21.974Z,77
2023-04-16T17:57:38.507Z,77
2023-04-16T18:26:56.316Z,77
2023-04-16T18:56:10.953Z,78
2023-04-16T19:25:31.525Z,80
2023-04-16T19:54:48.960Z,80
2023-04-16T20:24:06.482Z,80
2023-04-16T20:53:20.378Z,79
2023-04-16T21:22:41.129Z,80
2023-04-16T21:51:57.298Z,80
2023-04-16T22:21:17.460Z,80
2023-04-16T22:50:37.829Z,79
2023-04-16T23:19:55.284Z,81
2023-04-16T23:49:04.623Z,82
